Terminal Aerodrome Forecast
Issued by NWS Charleston, WV

Home | Current Version | Previous Version | Text Only | Print | Product List | Glossary On
Versions: 1 2 3 4 5 6 7 8 9 10 11 12 13 14 15 16 17 18 19 20 21 22 23 24 25
000
FTUS41 KRLX 070813 AAA
TAFHTS
TAF AMD
KHTS 070813Z 0708/0806 18004KT 5SM BR SKC
     FM071200 20004KT 6SM HZ FEW035
     FM071400 22009G16KT P6SM BKN035
     FM071900 22011G19KT P6SM VCTS BKN040CB BKN100
     FM072100 21006KT 4SM TSRA BR BKN035CB BKN080
     FM080200 22006KT 3SM SHRA BR VCTS BKN035CB BKN080=

USA.gov is the U.S. government's official web portal to all federal, state and local government web resources and services.